createdAt,value
2018-06-19T00:00:40.320Z,18.82
2018-06-19T00:03:08.151Z,18.40
2018-06-19T00:05:36.172Z,18.05
2018-06-19T00:08:04.264Z,18.00
2018-06-19T00:10:32.424Z,18.87
2018-06-19T00:13:00.466Z,19.00
2018-06-19T00:15:28.488Z,19.70
2018-06-19T00:17:59.716Z,18.20
2018-06-19T00:20:27.766Z,20.23
2018-06-19T00:22:55.804Z,19.70
2018-06-19T00:25:23.868Z,19.30
2018-06-19T00:27:51.884Z,20.02
2018-06-19T00:30:20.016Z,19.37
2018-06-19T00:32:48.062Z,19.42
2018-06-19T00:35:16.080Z,19.93
2018-06-19T00:37:44.316Z,19.82
2018-06-19T00:40:12.356Z,20.43
2018-06-19T00:42:40.393Z,20.50
2018-06-19T00:45:08.431Z,20.62
2018-06-19T00:47:36.453Z,21.80
2018-06-19T00:50:04.568Z,21.60
2018-06-19T00:52:32.632Z,22.67
2018-06-19T00:55:00.648Z,20.75
2018-06-19T00:57:28.665Z,21.77
2018-06-19T00:59:56.717Z,22.35
2018-06-19T01:02:24.725Z,21.90
2018-06-19T01:04:52.764Z,22.80
2018-06-19T01:07:20.772Z,23.77
2018-06-19T01:09:48.788Z,24.25
2018-06-19T01:12:16.807Z,23.35
2018-06-19T01:14:44.833Z,22.48
2018-06-19T01:17:12.869Z,23.70
2018-06-19T01:19:40.903Z,23.47
2018-06-19T01:22:08.975Z,22.75
2018-06-19T01:24:37.004Z,23.57
2018-06-19T01:27:05.036Z,23.35
2018-06-19T01:29:33.084Z,23.10
2018-06-19T01:32:01.144Z,23.42
2018-06-19T01:34:29.188Z,23.15
2018-06-19T01:36:57.216Z,23.10
2018-06-19T01:39:25.052Z,23.57
2018-06-19T01:41:53.076Z,23.12
2018-06-19T01:44:21.124Z,22.85
2018-06-19T01:46:49.156Z,23.38
2018-06-19T01:49:17.205Z,24.47
2018-06-19T01:51:45.236Z,23.80
2018-06-19T01:54:13.073Z,22.67
2018-06-19T01:56:41.132Z,23.50
2018-06-19T01:59:09.190Z,22.73
2018-06-19T02:01:37.236Z,23.80
2018-06-19T02:04:05.401Z,24.12
2018-06-19T02:06:33.249Z,24.92
2018-06-19T02:09:01.291Z,24.98
2018-06-19T02:11:29.334Z,24.75
2018-06-19T02:13:57.416Z,25.53
2018-06-19T02:16:25.424Z,24.90
2018-06-19T02:18:53.455Z,26.27
2018-06-19T02:21:21.512Z,25.50
2018-06-19T02:23:49.537Z,26.17
2018-06-19T02:26:17.543Z,25.72
2018-06-19T02:28:45.591Z,25.23
2018-06-19T02:31:13.620Z,25.57
2018-06-19T02:33:41.648Z,26.30
2018-06-19T02:36:09.672Z,26.07
2018-06-19T02:38:37.699Z,26.52
2018-06-19T02:41:05.767Z,25.27
2018-06-19T02:43:33.781Z,27.15
2018-06-19T02:46:01.804Z,26.27
2018-06-19T02:48:29.840Z,25.17
2018-06-19T02:50:57.671Z,25.80
2018-06-19T02:53:25.700Z,26.07
2018-06-19T02:55:53.752Z,26.70
2018-06-19T02:58:21.768Z,28.10
2018-06-19T03:00:49.788Z,25.65
2018-06-19T03:03:17.800Z,26.30
2018-06-19T03:05:45.856Z,27.50
2018-06-19T03:08:13.884Z,26.52
2018-06-19T03:10:41.895Z,29.00
2018-06-19T03:13:09.918Z,28.20
2018-06-19T03:15:37.981Z,27.95
2018-06-19T03:18:06.028Z,28.45
2018-06-19T03:20:34.037Z,28.47
2018-06-19T03:23:01.855Z,27.85
2018-06-19T03:25:29.880Z,28.20
2018-06-19T03:27:57.891Z,28.52
2018-06-19T03:30:26.037Z,28.50
2018-06-19T03:32:53.948Z,28.87
2018-06-19T03:35:21.955Z,26.97
2018-06-19T03:37:49.976Z,26.75
2018-06-19T03:40:17.995Z,27.70
2018-06-19T03:42:46.046Z,27.02
2018-06-19T03:45:14.072Z,27.77
2018-06-19T03:47:42.100Z,25.53
2018-06-19T03:50:10.129Z,26.15
2018-06-19T03:52:38.148Z,27.52
2018-06-19T03:55:06.212Z,25.65
2018-06-19T03:57:34.055Z,26.80
2018-06-19T04:00:02.110Z,26.37
2018-06-19T04:02:30.139Z,26.25
2018-06-19T04:04:58.164Z,25.55
2018-06-19T04:07:26.203Z,25.95
2018-06-19T04:09:54.237Z,25.12
2018-06-19T04:12:22.059Z,24.83
2018-06-19T04:14:50.081Z,25.60
2018-06-19T04:17:24.543Z,23.90
2018-06-19T04:19:52.926Z,25.32
2018-06-19T04:22:20.940Z,24.00
2018-06-19T04:24:48.980Z,23.77
2018-06-19T04:27:17.009Z,23.87
2018-06-19T04:29:45.048Z,23.57
2018-06-19T04:32:13.087Z,23.80
2018-06-19T04:34:41.111Z,23.27
2018-06-19T04:37:09.137Z,23.18
2018-06-19T04:39:37.168Z,24.13
2018-06-19T04:42:05.274Z,22.20
2018-06-19T04:44:33.256Z,23.62
2018-06-19T04:47:01.705Z,23.77
2018-06-19T04:49:29.726Z,24.27
2018-06-19T04:51:57.761Z,22.67
2018-06-19T04:54:25.821Z,24.23
2018-06-19T04:56:53.839Z,24.23
2018-06-19T04:59:21.896Z,23.22
2018-06-19T05:01:49.936Z,22.02
2018-06-19T05:04:17.980Z,25.20
2018-06-19T05:06:46.013Z,23.80
2018-06-19T05:09:14.844Z,24.20
2018-06-19T05:11:44.474Z,23.77
2018-06-19T05:14:12.488Z,24.47
2018-06-19T05:16:41.212Z,23.62
2018-06-19T05:19:09.372Z,22.55
2018-06-19T05:21:37.416Z,22.77
2018-06-19T05:24:05.528Z,23.70
2018-06-19T05:26:33.579Z,22.55
2018-06-19T05:29:01.600Z,23.00
2018-06-19T05:31:29.782Z,22.98
2018-06-19T05:33:57.912Z,21.60
2018-06-19T05:36:25.939Z,21.50
2018-06-19T05:38:53.960Z,21.90
2018-06-19T05:41:22.053Z,21.77
2018-06-19T05:43:49.986Z,21.20
2018-06-19T05:46:18.094Z,21.37
2018-06-19T05:48:46.032Z,21.60
2018-06-19T05:51:14.052Z,22.48
2018-06-19T05:53:42.093Z,21.85
2018-06-19T05:56:10.117Z,21.60
2018-06-19T05:58:38.152Z,20.90
2018-06-19T06:01:06.216Z,22.10
2018-06-19T06:03:34.228Z,20.25
2018-06-19T06:06:02.309Z,21.57
2018-06-19T06:08:30.427Z,20.00
2018-06-19T06:10:58.473Z,22.20
2018-06-19T06:13:26.481Z,21.30
2018-06-19T06:15:54.503Z,20.65
2018-06-19T06:18:22.551Z,19.42
2018-06-19T06:20:50.592Z,20.65
2018-06-19T06:23:18.415Z,20.10
2018-06-19T06:25:46.436Z,18.10
2018-06-19T06:28:14.456Z,20.72
2018-06-19T06:30:42.480Z,18.82
2018-06-19T06:33:10.512Z,18.82
2018-06-19T06:35:38.553Z,19.67
2018-06-19T06:38:06.596Z,19.20
2018-06-19T06:40:34.624Z,17.80
2018-06-19T06:43:02.459Z,18.32
2018-06-19T06:45:30.552Z,18.70
2018-06-19T06:47:58.603Z,18.10
2018-06-19T06:50:26.725Z,18.30
2018-06-19T06:52:54.668Z,17.70
2018-06-19T06:55:22.502Z,16.85
2018-06-19T06:57:50.524Z,17.25
2018-06-19T07:00:18.547Z,16.93
2018-06-19T07:02:46.561Z,17.10
2018-06-19T07:05:14.685Z,16.95
2018-06-19T07:07:42.739Z,15.90
2018-06-19T07:10:10.826Z,15.13
2018-06-19T07:12:38.798Z,15.48
2018-06-19T07:15:06.852Z,15.85
2018-06-19T07:17:35.348Z,15.00
2018-06-19T07:20:03.440Z,15.18
2018-06-19T07:22:31.471Z,13.78
2018-06-19T07:24:59.568Z,15.28
2018-06-19T07:27:27.597Z,15.60
2018-06-19T07:29:55.627Z,14.80
2018-06-19T07:32:23.485Z,14.83
2018-06-19T07:34:51.505Z,13.93
2018-06-19T07:37:19.552Z,14.80
2018-06-19T07:39:47.608Z,14.03
2018-06-19T07:42:15.649Z,15.13
2018-06-19T07:44:43.705Z,14.40
2018-06-19T07:47:11.732Z,14.70
2018-06-19T07:49:39.772Z,14.05
2018-06-19T07:52:07.809Z,14.28
2018-06-19T07:54:35.888Z,15.32
2018-06-19T07:57:03.933Z,14.10
2018-06-19T07:59:31.979Z,14.30
2018-06-19T08:02:00.050Z,14.50
2018-06-19T08:04:28.050Z,14.05
2018-06-19T08:06:56.188Z,15.03
2018-06-19T08:09:24.240Z,13.28
2018-06-19T08:11:52.267Z,13.90
2018-06-19T08:14:20.337Z,13.17
2018-06-19T08:16:48.404Z,14.23
2018-06-19T08:19:16.449Z,13.08
2018-06-19T08:21:44.472Z,14.30
2018-06-19T08:24:12.871Z,13.60
2018-06-19T08:26:40.934Z,13.22
2018-06-19T08:29:08.966Z,13.55
2018-06-19T08:31:37.012Z,14.50
2018-06-19T08:34:05.066Z,15.15
2018-06-19T08:36:33.100Z,14.75
2018-06-19T08:39:01.201Z,13.70
2018-06-19T08:41:29.051Z,13.30
2018-06-19T08:43:57.066Z,13.93
2018-06-19T08:46:25.114Z,14.10
2018-06-19T08:48:53.145Z,14.23
2018-06-19T08:51:21.181Z,16.35
2018-06-19T08:53:49.199Z,14.83
2018-06-19T08:56:17.228Z,16.60
2018-06-19T08:58:45.249Z,16.42
2018-06-19T09:01:13.139Z,17.05
2018-06-19T09:03:41.160Z,17.87
2018-06-19T09:06:09.222Z,18.60
2018-06-19T09:08:37.252Z,16.62
2018-06-19T09:11:05.694Z,17.45
2018-06-19T09:13:33.743Z,15.32
2018-06-19T09:16:01.841Z,15.55
2018-06-19T09:18:29.884Z,16.10
2018-06-19T09:20:57.944Z,15.90
2018-06-19T09:23:25.976Z,14.85
2018-06-19T09:25:54.080Z,15.40
2018-06-19T09:28:21.891Z,14.95
2018-06-19T09:30:49.962Z,14.65
2018-06-19T09:33:18.069Z,14.30
2018-06-19T09:35:46.124Z,15.33
2018-06-19T09:38:14.143Z,14.65
2018-06-19T09:40:42.180Z,15.18
2018-06-19T09:43:10.293Z,15.58
2018-06-19T09:45:38.440Z,16.37
2018-06-19T09:48:06.485Z,17.67
2018-06-19T09:50:34.519Z,17.07
2018-06-19T09:53:02.553Z,18.07
2018-06-19T09:55:30.604Z,18.27
2018-06-19T09:57:58.664Z,18.52
2018-06-19T10:00:31.661Z,18.17
2018-06-19T10:03:00.009Z,20.17
2018-06-19T10:05:28.457Z,18.00
2018-06-19T10:07:56.552Z,19.55
2018-06-19T10:10:24.415Z,20.43
2018-06-19T10:12:52.452Z,19.77
2018-06-19T10:15:20.510Z,20.90
2018-06-19T10:17:48.567Z,20.57
2018-06-19T10:20:16.645Z,20.23
2018-06-19T10:22:44.723Z,19.98
2018-06-19T10:25:12.842Z,20.00
2018-06-19T10:27:41.116Z,21.48
2018-06-19T10:30:09.148Z,20.23
2018-06-19T10:32:37.318Z,19.45
2018-06-19T10:35:05.384Z,18.30
2018-06-19T10:37:33.436Z,18.07
2018-06-19T10:40:02.277Z,19.50
2018-06-19T10:42:30.342Z,19.48
2018-06-19T10:44:58.377Z,18.73
2018-06-19T10:47:26.448Z,19.80
2018-06-19T10:49:54.550Z,18.40
2018-06-19T10:52:22.599Z,19.48
2018-06-19T10:54:50.619Z,19.10
2018-06-19T10:57:18.668Z,20.60
2018-06-19T10:59:46.744Z,18.23
2018-06-19T11:02:14.831Z,19.32
2018-06-19T11:04:42.672Z,19.62
2018-06-19T11:07:10.814Z,19.17
2018-06-19T11:09:38.804Z,20.25
2018-06-19T11:12:06.916Z,20.12
2018-06-19T11:14:34.741Z,19.27
2018-06-19T11:17:02.828Z,20.15
2018-06-19T11:19:30.873Z,19.20
2018-06-19T11:21:58.896Z,18.73
2018-06-19T11:24:26.720Z,18.85
2018-06-19T11:26:54.748Z,19.70
2018-06-19T11:29:22.778Z,20.90
2018-06-19T11:31:50.796Z,20.00
2018-06-19T11:34:18.815Z,21.15
2018-06-19T11:36:46.917Z,21.10
2018-06-19T11:39:14.919Z,20.45
2018-06-19T11:41:43.954Z,19.15
2018-06-19T11:44:11.988Z,20.40
2018-06-19T11:46:40.026Z,25.20
2018-06-19T11:49:08.139Z,27.60
2018-06-19T11:51:36.129Z,19.13
2018-06-19T11:54:04.172Z,18.02
2018-06-19T11:56:32.197Z,16.40
2018-06-19T11:59:00.220Z,15.48
2018-06-19T12:01:28.305Z,15.90
2018-06-19T12:03:56.344Z,16.97
2018-06-19T12:06:24.380Z,17.50
2018-06-19T12:08:52.431Z,17.27
2018-06-19T12:11:20.258Z,16.55
2018-06-19T12:13:48.287Z,15.90
2018-06-19T12:16:16.328Z,16.80
2018-06-19T12:18:44.367Z,15.50
2018-06-19T12:21:12.391Z,15.90
2018-06-19T12:23:40.229Z,16.02
2018-06-19T12:26:08.255Z,14.53
2018-06-19T12:28:36.286Z,14.20
2018-06-19T12:31:04.104Z,14.50
2018-06-19T12:33:32.124Z,16.52
2018-06-19T12:35:59.955Z,16.93
2018-06-19T12:38:27.976Z,16.42
2018-06-19T12:40:55.997Z,15.13
2018-06-19T12:43:24.134Z,17.10
2018-06-19T12:45:52.139Z,17.02
2018-06-19T12:48:20.164Z,18.92
2018-06-19T12:52:03.161Z,18.25
2018-06-19T12:54:45.826Z,19.15
2018-06-19T12:57:13.856Z,18.25
2018-06-19T12:59:41.868Z,19.95
2018-06-19T13:02:09.917Z,19.67
2018-06-19T13:04:49.703Z,20.62
2018-06-19T13:07:17.729Z,19.77
2018-06-19T13:09:45.784Z,15.10
2018-06-19T13:12:25.332Z,14.87
2018-06-19T13:14:53.377Z,13.15
2018-06-19T13:18:31.969Z,13.15
2018-06-19T13:21:00.017Z,13.43
2018-06-19T13:23:28.219Z,12.47
2018-06-19T13:25:56.376Z,13.45
2018-06-19T13:29:37.480Z,11.48
2018-06-19T13:32:05.744Z,10.60
2018-06-19T13:34:34.844Z,11.25
2018-06-19T13:37:03.620Z,10.03
2018-06-19T13:39:31.920Z,9.50
2018-06-19T13:42:11.577Z,9.53
2018-06-19T13:45:04.604Z,11.45
2018-06-19T13:47:32.684Z,10.40
2018-06-19T13:50:00.870Z,8.53
2018-06-19T13:52:28.896Z,7.10
2018-06-19T13:57:19.636Z,7.47
2018-06-19T13:59:47.688Z,12.70
2018-06-19T14:02:15.967Z,13.38
2018-06-19T14:04:44.000Z,7.00
2018-06-19T14:07:12.051Z,6.95
2018-06-19T14:09:46.568Z,5.87
2018-06-19T14:12:29.598Z,6.28
2018-06-19T14:14:57.454Z,6.47
2018-06-19T14:17:25.999Z,7.28
2018-06-19T14:19:55.155Z,10.10
2018-06-19T14:22:24.096Z,7.15
2018-06-19T14:24:52.152Z,6.75
2018-06-19T14:27:20.185Z,5.75
2018-06-19T14:29:48.217Z,5.45
2018-06-19T14:32:16.256Z,5.60
2018-06-19T14:34:44.292Z,5.63
2018-06-19T14:37:12.377Z,5.45
2018-06-19T14:39:40.410Z,6.95
2018-06-19T14:42:08.460Z,5.90
2018-06-19T14:44:36.599Z,6.00
2018-06-19T14:47:04.729Z,6.42
2018-06-19T14:49:32.768Z,6.35
2018-06-19T14:52:00.813Z,6.07
2018-06-19T14:54:28.861Z,6.97
2018-06-19T14:56:56.887Z,5.78
2018-06-19T14:59:24.909Z,5.70
2018-06-19T15:01:52.942Z,5.62
2018-06-19T15:04:20.968Z,5.00
2018-06-19T15:06:49.047Z,5.45
2018-06-19T15:09:17.101Z,4.90
2018-06-19T15:11:45.230Z,5.10
2018-06-19T15:14:13.245Z,5.30
2018-06-19T15:16:41.291Z,5.27
2018-06-19T15:19:09.351Z,4.70
2018-06-19T15:21:37.408Z,5.95
2018-06-19T15:24:05.508Z,5.20
2018-06-19T15:26:33.509Z,5.15
2018-06-19T15:29:01.556Z,5.87
2018-06-19T15:31:29.596Z,4.75
2018-06-19T15:33:57.431Z,7.50
2018-06-19T15:36:25.460Z,5.30
2018-06-19T15:38:53.508Z,6.35
2018-06-19T15:41:21.408Z,4.45
2018-06-19T15:43:49.437Z,5.75
2018-06-19T15:46:17.278Z,4.70
2018-06-19T15:48:45.352Z,3.72
2018-06-19T15:51:13.397Z,2.52
2018-06-19T15:53:41.437Z,3.80
2018-06-19T15:56:09.477Z,2.65
2018-06-19T15:58:37.520Z,3.50
2018-06-19T16:01:05.574Z,3.42
2018-06-19T16:03:33.635Z,3.20
2018-06-19T16:06:01.700Z,2.97
2018-06-19T16:08:29.776Z,2.65
2018-06-19T16:10:57.846Z,4.10
2018-06-19T16:13:25.884Z,3.60
2018-06-19T16:15:53.727Z,3.90
2018-06-19T16:18:21.772Z,2.50
2018-06-19T16:20:50.741Z,4.20
2018-06-19T16:23:18.784Z,4.43
2018-06-19T16:25:46.636Z,2.97
2018-06-19T16:28:14.651Z,2.20
2018-06-19T16:30:42.690Z,2.80
2018-06-19T16:33:10.723Z,3.80
2018-06-19T16:35:38.759Z,3.15
2018-06-19T16:38:06.788Z,4.20
2018-06-19T16:40:34.928Z,4.60
2018-06-19T16:43:02.960Z,3.70
2018-06-19T16:45:30.984Z,4.27
2018-06-19T16:47:59.011Z,3.67
2018-06-19T16:50:27.008Z,3.05
2018-06-19T16:52:55.080Z,4.67
2018-06-19T16:55:23.285Z,3.60
2018-06-19T16:57:51.252Z,3.10
2018-06-19T17:00:19.268Z,4.62
2018-06-19T17:02:47.317Z,4.00
2018-06-19T17:05:15.388Z,3.70
2018-06-19T17:07:43.420Z,4.90
2018-06-19T17:10:12.710Z,5.75
2018-06-19T17:12:40.864Z,4.05
2018-06-19T17:15:08.912Z,3.63
2018-06-19T17:17:36.982Z,3.97
2018-06-19T17:20:05.187Z,6.85
2018-06-19T17:22:33.232Z,4.25
2018-06-19T17:25:01.288Z,4.15
2018-06-19T17:27:29.432Z,3.30
2018-06-19T17:29:57.973Z,3.20
2018-06-19T17:32:26.436Z,4.17
2018-06-19T17:34:54.928Z,6.35
2018-06-19T17:37:23.453Z,4.85
2018-06-19T17:39:51.854Z,3.33
2018-06-19T17:42:20.231Z,4.20
2018-06-19T17:44:48.484Z,2.90
2018-06-19T17:47:16.900Z,4.17
2018-06-19T17:49:45.250Z,4.10
2018-06-19T17:52:13.813Z,3.53
2018-06-19T17:54:42.215Z,4.28
2018-06-19T17:57:10.740Z,3.90
2018-06-19T17:59:39.198Z,5.78
2018-06-19T18:02:08.305Z,3.75
2018-06-19T18:04:36.571Z,3.43
2018-06-19T18:07:05.474Z,3.90
2018-06-19T18:09:33.962Z,5.75
2018-06-19T18:12:02.318Z,4.50
2018-06-19T18:14:30.807Z,4.60
2018-06-19T18:16:59.337Z,4.42
2018-06-19T18:19:27.763Z,4.22
2018-06-19T18:21:55.919Z,4.17
2018-06-19T18:24:24.423Z,4.80
2018-06-19T18:26:52.731Z,6.15
2018-06-19T18:29:21.193Z,4.20
2018-06-19T18:31:50.424Z,4.67
2018-06-19T18:34:19.988Z,5.67
2018-06-19T18:36:48.504Z,4.72
2018-06-19T18:39:16.634Z,5.03
2018-06-19T18:41:45.116Z,4.75
2018-06-19T18:44:13.588Z,5.50
2018-06-19T18:46:42.083Z,7.25
2018-06-19T18:49:10.481Z,4.90
2018-06-19T18:51:38.931Z,4.50
2018-06-19T18:54:07.441Z,4.17
2018-06-19T18:56:35.838Z,5.22
2018-06-19T18:59:04.479Z,3.70
2018-06-19T19:01:32.898Z,4.85
2018-06-19T19:04:01.391Z,4.03
2018-06-19T19:06:29.691Z,3.00
2018-06-19T19:08:58.038Z,6.40
2018-06-19T19:11:26.677Z,4.25
2018-06-19T19:13:55.159Z,5.10
2018-06-19T19:16:28.968Z,4.45
2018-06-19T19:19:04.123Z,4.80
2018-06-19T19:21:32.594Z,5.30
2018-06-19T19:24:01.017Z,4.85
2018-06-19T19:26:34.701Z,4.35
2018-06-19T19:29:08.790Z,3.35
2018-06-19T19:31:37.169Z,6.10
2018-06-19T19:34:06.040Z,5.45
2018-06-19T19:36:39.582Z,5.15
2018-06-19T19:39:13.986Z,3.70
2018-06-19T19:41:43.888Z,4.40
2018-06-19T19:44:12.313Z,5.20
2018-06-19T19:46:46.070Z,4.45
2018-06-19T19:49:14.499Z,6.03
2018-06-19T19:51:42.740Z,5.85
2018-06-19T19:54:11.495Z,6.42
2018-06-19T19:56:45.680Z,7.27
2018-06-19T19:59:13.901Z,5.05
2018-06-19T20:01:42.367Z,6.15
2018-06-19T20:04:10.396Z,6.40
2018-06-19T20:06:38.212Z,4.90
2018-06-19T20:09:07.259Z,5.92
2018-06-19T20:11:35.275Z,5.72
2018-06-19T20:14:03.617Z,6.73
2018-06-19T20:16:31.627Z,6.28
2018-06-19T20:18:59.653Z,6.75
2018-06-19T20:21:27.673Z,5.83
2018-06-19T20:23:55.956Z,7.95
2018-06-19T20:26:24.013Z,5.80
2018-06-19T20:28:52.054Z,6.22
2018-06-19T20:31:20.080Z,7.47
2018-06-19T20:33:48.120Z,6.33
2018-06-19T20:36:16.172Z,6.83
2018-06-19T20:38:44.272Z,7.40
2018-06-19T20:41:12.315Z,9.45
2018-06-19T20:43:40.359Z,7.47
2018-06-19T20:46:08.421Z,6.25
2018-06-19T20:48:36.453Z,9.53
2018-06-19T20:51:04.488Z,6.62
2018-06-19T20:53:33.128Z,7.35
2018-06-19T20:56:01.156Z,7.53
2018-06-19T20:58:29.207Z,8.98
2018-06-19T21:00:57.249Z,8.48
2018-06-19T21:03:25.088Z,7.20
2018-06-19T21:05:53.137Z,7.42
2018-06-19T21:08:25.632Z,7.10
2018-06-19T21:10:53.659Z,8.45
2018-06-19T21:13:22.099Z,6.17
2018-06-19T21:15:50.425Z,7.73
2018-06-19T21:18:18.830Z,8.25
2018-06-19T21:20:47.203Z,7.67
2018-06-19T21:23:15.557Z,9.10
2018-06-19T21:25:43.991Z,9.70
2018-06-19T21:28:12.477Z,8.65
2018-06-19T21:30:40.629Z,9.38
2018-06-19T21:33:08.933Z,9.13
2018-06-19T21:35:37.292Z,6.92
2018-06-19T21:38:05.592Z,8.15
2018-06-19T21:40:33.906Z,9.18
2018-06-19T21:43:02.346Z,9.23
2018-06-19T21:45:30.384Z,10.50
2018-06-19T21:47:58.804Z,7.28
2018-06-19T21:50:27.228Z,8.50
2018-06-19T21:52:55.527Z,7.72
2018-06-19T21:55:23.869Z,6.60
2018-06-19T21:57:53.198Z,7.30
2018-06-19T22:00:21.228Z,6.67
2018-06-19T22:02:49.282Z,9.25
2018-06-19T22:05:17.320Z,9.25
2018-06-19T22:07:45.356Z,8.30
2018-06-19T22:10:13.384Z,7.87
2018-06-19T22:12:41.454Z,9.73
2018-06-19T22:15:09.472Z,8.03
2018-06-19T22:17:37.500Z,6.58
2018-06-19T22:20:05.549Z,11.30
2018-06-19T22:22:33.404Z,7.58
2018-06-19T22:25:01.434Z,7.42
2018-06-19T22:27:29.471Z,5.70
2018-06-19T22:29:57.491Z,7.45
2018-06-19T22:32:25.562Z,8.28
2018-06-19T22:34:53.603Z,8.63
2018-06-19T22:37:21.628Z,7.00
2018-06-19T22:39:49.651Z,5.37
2018-06-19T22:42:17.680Z,6.35
2018-06-19T22:44:45.716Z,5.57
2018-06-19T22:47:13.799Z,8.33
2018-06-19T22:49:41.840Z,6.40
2018-06-19T22:52:09.861Z,7.83
2018-06-19T22:54:37.896Z,8.70
2018-06-19T22:57:06.004Z,7.70
2018-06-19T22:59:33.840Z,7.90
2018-06-19T23:02:01.890Z,7.62
2018-06-19T23:04:29.909Z,9.00
2018-06-19T23:06:57.932Z,5.95
2018-06-19T23:09:25.951Z,8.08
2018-06-19T23:11:53.981Z,7.25
2018-06-19T23:14:21.992Z,6.47
2018-06-19T23:16:50.000Z,7.30
2018-06-19T23:19:18.028Z,8.30
2018-06-19T23:21:46.054Z,7.22
2018-06-19T23:24:14.061Z,5.53
2018-06-19T23:26:41.891Z,6.87
2018-06-19T23:29:09.907Z,7.60
2018-06-19T23:31:37.956Z,8.85
2018-06-19T23:34:05.779Z,6.12
2018-06-19T23:36:33.789Z,7.10
2018-06-19T23:39:01.801Z,5.30
2018-06-19T23:41:29.827Z,6.60
2018-06-19T23:43:57.864Z,5.67
2018-06-19T23:46:25.901Z,5.53
2018-06-19T23:48:53.940Z,5.62
2018-06-19T23:51:21.976Z,8.05
2018-06-19T23:53:49.996Z,6.53
2018-06-19T23:56:18.066Z,7.90
2018-06-19T23:58:45.867Z,7.05
